Time;durP1;ratioP1;P1;durP2;ratioP2;P2;SDS_P1;SDS_P2;PMS_P1;PMS_P2;Temp;Humidity;BMP_temperature;BMP_pressure;BME280_temperature;BME280_humidity;BME280_pressure;Samples;Min_cycle;Max_cycle;Signal;HPM_P1;HPM_P2
2022/12/17 13:06:47;;;;;;;28.50;16.33;;;;;;;4.17;59.54;99245.97;5096113;28;20047;-47
2022/12/17 13:09:25;;;;;;;34.40;16.85;;;;;;;4.20;60.07;99244.84;5094650;28;20032;-47
2022/12/17 13:12:02;;;;;;;24.45;15.48;;;;;;;4.38;59.02;99245.69;5095856;28;20031;-47
2022/12/17 13:14:28;;;;;;;24.50;15.00;;;;;;;4.09;58.98;99251.06;5095645;28;20165;-47
2022/12/17 13:17:00;;;;;;;23.88;15.90;;;;;;;4.05;60.05;99254.13;5094384;28;20107;-47
2022/12/17 13:19:31;;;;;;;21.98;15.18;;;;;;;4.16;59.99;99253.91;5095660;28;20463;-47
2022/12/17 13:22:26;;;;;;;21.92;15.93;;;;;;;4.25;59.35;99253.03;5095524;28;20038;-47
2022/12/17 13:25:09;;;;;;;24.30;15.25;;;;;;;4.47;58.96;99251.81;5095533;28;20494;-47
2022/12/17 13:27:34;;;;;;;59.65;50.85;;;;;;;4.49;59.02;99259.47;5095233;28;20107;-47
2022/12/17 13:30:36;;;;;;;66.50;54.03;;;;;;;4.49;58.96;99260.28;5095391;28;20559;-47
2022/12/17 13:33:43;;;;;;;59.55;46.95;;;;;;;4.45;58.88;99258.94;5095431;28;20058;-47
2022/12/17 13:36:24;;;;;;;31.75;22.25;;;;;;;4.42;59.20;99266.22;5016287;28;20492;-47
2022/12/17 13:38:54;;;;;;;26.85;18.60;;;;;;;4.24;59.24;99273.97;5016217;28;20515;-47
2022/12/17 13:41:26;;;;;;;30.17;17.70;;;;;;;3.96;59.52;99272.19;5016064;28;20124;-47
2022/12/17 13:43:57;;;;;;;70.20;54.60;;;;;;;4.03;60.58;99271.63;5032866;28;20026;-47
2022/12/17 13:46:24;;;;;;;64.93;51.97;;;;;;;4.05;60.19;99269.69;5032574;28;20037;-47
2022/12/17 13:48:59;;;;;;;26.17;18.67;;;;;;;3.85;59.56;99264.56;5032547;28;20021;-47
2022/12/17 13:51:31;;;;;;;25.90;16.37;;;;;;;3.69;60.86;99259.97;5032564;28;20458;-47
2022/12/17 13:54:00;;;;;;;23.80;16.35;;;;;;;3.74;60.67;99260.38;5032554;28;20041;-47
2022/12/17 13:56:31;;;;;;;32.30;17.83;;;;;;;3.69;61.48;99270.38;5015788;28;20415;-47
2022/12/17 13:59:01;;;;;;;25.75;16.42;;;;;;;3.97;61.65;99276.41;5032471;28;20034;-47
2022/12/17 14:01:27;;;;;;;23.60;15.20;;;;;;;4.27;61.22;99274.50;5032290;28;20037;-47
2022/12/17 14:04:01;;;;;;;27.60;14.75;;;;;;;4.49;60.55;99275.06;5032408;28;20500;-47
2022/12/17 14:06:34;;;;;;;23.35;14.50;;;;;;;4.74;59.94;99273.50;5051688;28;20039;-47
2022/12/17 14:09:01;;;;;;;25.90;15.85;;;;;;;4.90;59.82;99273.66;5092143;28;20459;-47
2022/12/17 14:14:39;;;;;;;24.70;16.35;;;;;;;5.03;58.81;99278.50;5094858;28;20039;-47
2022/12/17 14:17:06;;;;;;;28.13;16.40;;;;;;;5.03;58.73;99277.66;5094504;28;20032;-47
2022/12/17 14:19:32;;;;;;;25.00;16.67;;;;;;;4.96;58.28;99290.47;5093127;28;20410;-47
2022/12/17 14:21:59;;;;;;;25.60;17.27;;;;;;;4.99;58.69;99285.78;5094431;28;20047;-48
2022/12/17 14:24:28;;;;;;;21.60;15.30;;;;;;;5.11;58.24;99291.56;5094213;28;20079;-47
2022/12/17 14:26:58;;;;;;;24.33;15.95;;;;;;;5.18;58.13;99278.78;5094205;28;20030;-47
2022/12/17 14:29:30;;;;;;;28.38;15.23;;;;;;;5.26;58.75;99285.81;5110007;28;20512;-47
2022/12/17 14:32:00;;;;;;;23.88;15.88;;;;;;;5.39;58.52;99284.47;5092995;28;20028;-47
2022/12/17 14:34:26;;;;;;;24.90;15.70;;;;;;;5.41;57.46;99281.69;5092961;28;20120;-47
2022/12/17 14:36:58;;;;;;;23.88;16.23;;;;;;;5.19;56.77;99286.44;5094181;28;20044;-47
2022/12/17 14:39:26;;;;;;;22.95;15.52;;;;;;;4.99;57.86;99283.19;5092756;28;20034;-47
2022/12/17 14:44:53;;;;;;;25.50;16.60;;;;;;;4.63;58.17;99282.34;5094358;28;20413;-47
2022/12/17 14:47:25;;;;;;;29.77;15.43;;;;;;;4.63;58.60;99284.97;5094172;28;20434;-47
2022/12/17 14:50:12;;;;;;;26.63;16.77;;;;;;;4.83;58.68;99282.19;5093819;28;20102;-47
2022/12/17 14:52:46;;;;;;;34.40;18.58;;;;;;;5.05;59.40;99283.53;5093957;28;20036;-47
2022/12/17 14:55:36;;;;;;;24.20;16.98;;;;;;;4.95;59.11;99286.19;5093852;28;20060;-47
2022/12/17 14:58:15;;;;;;;26.92;17.20;;;;;;;4.68;58.43;99282.72;5092462;28;20506;-47
2022/12/17 15:00:47;;;;;;;30.00;18.08;;;;;;;4.43;59.71;99296.41;5093754;28;20107;-47
2022/12/17 15:03:26;;;;;;;55.83;38.70;;;;;;;4.50;60.81;99302.69;5093652;28;20506;-47
2022/12/17 15:05:57;;;;;;;23.38;16.10;;;;;;;4.61;59.18;99286.88;5094008;28;20397;-47
2022/12/17 15:08:24;;;;;;;27.15;17.33;;;;;;;4.37;59.02;99284.84;5093468;28;20051;-48
2022/12/17 15:10:49;;;;;;;30.92;18.48;;;;;;;4.32;59.16;99282.66;5093517;28;20016;-47
2022/12/17 15:13:15;;;;;;;22.02;16.17;;;;;;;4.22;59.35;99281.09;5093433;28;20016;-47
2022/12/17 15:15:41;;;;;;;23.17;15.70;;;;;;;4.06;59.10;99277.31;5093370;28;20065;-47
2022/12/17 15:18:07;;;;;;;24.27;15.95;;;;;;;4.04;58.99;99270.63;5109167;28;20493;-47
2022/12/17 15:20:32;;;;;;;26.73;18.17;;;;;;;4.09;59.38;99279.66;5091875;28;20024;-48
2022/12/17 15:23:00;;;;;;;39.88;25.02;;;;;;;4.13;59.93;99275.78;5093036;28;20126;-47
2022/12/17 15:25:26;;;;;;;31.15;19.20;;;;;;;4.19;60.56;99275.22;5093289;28;20036;-48
2022/12/17 15:27:52;;;;;;;31.33;22.75;;;;;;;4.25;59.30;99270.41;5091764;28;20022;-48
2022/12/17 15:30:18;;;;;;;24.02;16.95;;;;;;;4.26;60.30;99272.03;5091754;28;20028;-47
2022/12/17 15:32:45;;;;;;;24.23;17.52;;;;;;;4.32;59.33;99271.47;5093346;28;20418;-48
2022/12/17 15:35:12;;;;;;;31.40;17.27;;;;;;;4.36;59.48;99276.19;5074798;28;20024;-47
2022/12/17 15:37:38;;;;;;;36.13;19.52;;;;;;;4.41;59.24;99273.19;5091642;28;20020;-48
2022/12/17 15:40:05;;;;;;;25.90;18.20;;;;;;;4.49;59.93;99265.47;5092954;28;20024;-47
2022/12/17 15:45:15;;;;;;;26.55;18.63;;;;;;;4.43;58.63;99265.22;5092852;28;20409;-48
2022/12/17 15:47:41;;;;;;;28.60;18.70;;;;;;;4.22;59.82;99281.09;5091411;28;20103;-47
2022/12/17 15:50:07;;;;;;;33.40;20.08;;;;;;;4.22;59.47;99274.09;5091416;28;20534;-48
2022/12/17 15:52:32;;;;;;;27.50;20.10;;;;;;;3.88;59.30;99276.44;5092763;28;20438;-48
2022/12/17 15:54:58;;;;;;;27.90;19.00;;;;;;;3.44;61.12;99276.16;5092711;28;20111;-48
2022/12/17 15:57:24;;;;;;;31.33;18.80;;;;;;;3.73;63.48;99278.69;5091270;28;20401;-47
2022/12/17 15:59:50;;;;;;;28.02;19.13;;;;;;;4.38;64.80;99276.06;5091290;28;20027;-48
2022/12/17 16:02:16;;;;;;;26.52;19.20;;;;;;;5.03;65.45;99264.66;5092542;28;20455;-48
2022/12/17 16:04:42;;;;;;;33.35;17.95;;;;;;;5.47;64.64;99275.06;5091174;28;20031;-48
2022/12/17 16:07:08;;;;;;;27.38;18.55;;;;;;;5.84;64.34;99267.00;5092360;28;20016;-48
2022/12/17 16:09:34;;;;;;;21.88;17.08;;;;;;;5.94;63.59;99269.47;5092415;28;20035;-48
2022/12/17 16:11:59;;;;;;;51.38;42.60;;;;;;;5.96;64.42;99262.34;5091053;28;20107;-47
2022/12/17 16:14:25;;;;;;;28.05;21.70;;;;;;;6.04;63.60;99262.38;5092334;28;20020;-47
2022/12/17 16:16:51;;;;;;;36.65;24.95;;;;;;;6.04;63.32;99267.59;5090932;28;20067;-48
2022/12/17 16:19:20;;;;;;;29.88;17.90;;;;;;;5.93;62.93;99257.41;5092211;28;20059;-48
2022/12/17 16:21:46;;;;;;;26.17;19.02;;;;;;;5.69;62.30;99256.31;5090872;28;20092;-48
2022/12/17 16:24:12;;;;;;;25.92;18.40;;;;;;;5.23;61.71;99266.09;5090704;28;20501;-48
2022/12/17 16:26:37;;;;;;;29.27;18.50;;;;;;;4.89;62.06;99266.84;5090779;28;20023;-47
2022/12/17 16:29:03;;;;;;;37.08;19.08;;;;;;;4.77;62.88;99266.25;5092144;28;20036;-47
2022/12/17 16:31:29;;;;;;;27.40;15.73;;;;;;;4.61;61.54;99266.09;5091452;28;20153;-48
2022/12/17 16:33:55;;;;;;;30.40;19.92;;;;;;;4.16;61.77;99277.28;5092138;28;20485;-47
2022/12/17 16:36:21;;;;;;;37.33;21.30;;;;;;;4.08;63.06;99257.22;5092027;28;20035;-48
2022/12/17 16:38:50;;;;;;;29.25;19.02;;;;;;;4.17;62.73;99256.34;5090697;28;20028;-47
2022/12/17 16:41:17;;;;;;;29.75;18.63;;;;;;;4.02;63.33;99260.38;5090592;28;20031;-47
2022/12/17 16:43:44;;;;;;;27.20;17.05;;;;;;;4.05;63.74;99265.31;5091952;28;20020;-47
2022/12/17 16:46:22;;;;;;;30.50;18.30;;;;;;;4.33;63.47;99268.72;5091901;28;20513;-47
2022/12/17 16:48:48;;;;;;;26.77;18.10;;;;;;;4.59;63.79;99268.81;5091768;28;20410;-47
2022/12/17 16:51:16;;;;;;;24.63;17.10;;;;;;;4.70;63.21;99270.38;5091909;28;20039;-47
2022/12/17 16:53:43;;;;;;;25.27;16.10;;;;;;;4.76;63.18;99281.97;5091870;28;20034;-47
2022/12/17 16:56:21;;;;;;;24.90;17.17;;;;;;;4.58;61.75;99282.78;5090473;28;20016;-47
2022/12/17 16:58:47;;;;;;;34.15;17.08;;;;;;;4.38;62.53;99276.06;5091853;28;20378;-47
2022/12/17 17:01:27;;;;;;;27.70;18.45;;;;;;;4.36;62.10;99281.41;5091770;28;20030;-47
2022/12/17 17:03:53;;;;;;;25.55;18.27;;;;;;;4.19;62.48;99279.59;5091764;28;20032;-47
2022/12/17 17:06:19;;;;;;;28.88;18.08;;;;;;;4.15;62.99;99279.06;5090326;28;20395;-47
2022/12/17 17:08:46;;;;;;;29.48;19.35;;;;;;;4.23;62.58;99280.13;5090300;28;20032;-47
2022/12/17 17:11:18;;;;;;;26.85;19.20;;;;;;;4.33;62.11;99279.13;5091673;28;20480;-47
2022/12/17 17:13:44;;;;;;;28.70;17.95;;;;;;;4.29;61.36;99276.97;5091665;28;20028;-47
2022/12/17 17:16:11;;;;;;;28.35;18.17;;;;;;;4.06;61.46;99277.31;5090319;28;20115;-47
2022/12/17 17:18:37;;;;;;;25.92;18.65;;;;;;;3.95;61.78;99282.72;5090302;28;20114;-47
2022/12/17 17:21:16;;;;;;;34.63;27.52;;;;;;;3.85;62.54;99289.72;5091489;28;20020;-47
2022/12/17 17:23:42;;;;;;;27.92;18.67;;;;;;;3.87;62.26;99282.63;5090038;28;20044;-47
2022/12/17 17:26:09;;;;;;;29.42;21.55;;;;;;;3.90;62.38;99280.53;5091527;28;20016;-48
2022/12/17 17:28:35;;;;;;;31.65;20.45;;;;;;;3.85;62.36;99284.53;5091498;28;20386;-47
2022/12/17 17:31:02;;;;;;;33.08;19.10;;;;;;;3.86;61.95;99283.56;5091476;28;20048;-47
2022/12/17 17:33:29;;;;;;;28.42;19.92;;;;;;;3.79;62.21;99285.91;5091504;28;20016;-47
2022/12/17 17:36:03;;;;;;;29.52;17.98;;;;;;;3.87;62.49;99286.03;5091364;28;20020;-47
2022/12/17 17:38:28;;;;;;;40.25;19.98;;;;;;;3.90;62.43;99287.50;5091496;28;20452;-47
2022/12/17 17:40:57;;;;;;;28.85;20.23;;;;;;;3.95;61.95;99286.13;5090040;28;20031;-47
2022/12/17 17:43:23;;;;;;;29.67;19.00;;;;;;;4.05;62.51;99287.88;5091756;28;20031;-47
2022/12/17 17:45:49;;;;;;;30.42;21.55;;;;;;;4.11;61.79;99292.50;5095170;28;20036;-47
2022/12/17 17:48:14;;;;;;;33.67;20.05;;;;;;;3.97;61.99;99296.38;5095007;28;20021;-48
2022/12/17 17:50:40;;;;;;;34.13;19.95;;;;;;;3.82;62.02;99308.16;5095068;28;20055;-47
2022/12/17 17:53:06;;;;;;;35.47;19.70;;;;;;;3.85;62.54;99308.72;5094956;28;20031;-47
2022/12/17 17:55:34;;;;;;;29.90;19.27;;;;;;;3.96;62.63;99299.91;5094877;28;20573;-47
2022/12/17 17:58:00;;;;;;;31.85;20.42;;;;;;;3.99;62.62;99304.84;5094900;28;20020;-47
2022/12/17 18:00:26;;;;;;;31.60;19.35;;;;;;;4.07;62.71;99304.94;5094843;28;20035;-48
2022/12/17 18:02:52;;;;;;;29.85;19.60;;;;;;;4.15;62.46;99296.44;5094828;28;20024;-47
2022/12/17 18:05:18;;;;;;;34.72;19.55;;;;;;;4.20;62.05;99294.22;5094757;28;20367;-47
2022/12/17 18:07:43;;;;;;;30.70;20.23;;;;;;;4.20;61.65;99295.06;5094699;28;20134;-47
2022/12/17 18:10:09;;;;;;;45.78;25.30;;;;;;;4.20;62.23;99295.06;5093436;28;20486;-48
2022/12/17 18:15:19;;;;;;;33.20;20.05;;;;;;;4.30;61.98;99302.78;5094632;28;20134;-47
2022/12/17 18:17:50;;;;;;;35.92;19.85;;;;;;;4.30;62.18;99309.75;5094574;28;20115;-48
2022/12/17 18:20:17;;;;;;;38.15;20.27;;;;;;;4.45;62.65;99308.31;5094466;28;20024;-47
2022/12/17 18:22:44;;;;;;;31.25;19.35;;;;;;;4.66;62.48;99318.44;5094282;28;20560;-48
2022/12/17 18:25:10;;;;;;;36.10;20.23;;;;;;;4.80;61.91;99311.94;5094741;28;20505;-47
2022/12/17 18:27:36;;;;;;;36.58;19.77;;;;;;;4.91;61.66;99309.13;5094340;28;20020;-47
2022/12/17 18:30:02;;;;;;;34.40;20.15;;;;;;;4.94;61.19;99318.41;5094253;28;20095;-48
2022/12/17 18:32:28;;;;;;;31.10;19.27;;;;;;;4.86;60.47;99318.31;5093076;28;20061;-47
2022/12/17 18:34:53;;;;;;;34.92;20.35;;;;;;;4.68;60.68;99315.69;5093051;28;20032;-47
2022/12/17 18:37:19;;;;;;;28.63;21.13;;;;;;;4.65;60.46;99316.81;5094382;28;20032;-47
2022/12/17 18:39:45;;;;;;;33.33;19.60;;;;;;;4.50;60.63;99319.09;5094110;28;20397;-48
2022/12/17 18:44:54;;;;;;;33.60;20.42;;;;;;;4.08;61.90;99310.94;5094096;28;20528;-48
2022/12/17 18:47:20;;;;;;;31.75;19.52;;;;;;;4.28;62.84;99317.69;5093893;28;20028;-47
2022/12/17 18:49:46;;;;;;;41.30;21.40;;;;;;;4.55;63.06;99318.66;5093961;28;20016;-48
2022/12/17 18:52:11;;;;;;;31.80;20.30;;;;;;;4.78;62.75;99314.66;5092558;28;20118;-47
2022/12/17 18:54:38;;;;;;;29.83;19.30;;;;;;;4.89;61.62;99311.06;5093070;28;20035;-47
2022/12/17 18:57:04;;;;;;;33.63;20.17;;;;;;;4.66;60.70;99320.22;5093693;28;20036;-47
2022/12/17 18:59:30;;;;;;;38.83;23.05;;;;;;;4.57;61.21;99327.13;5092456;28;20025;-48
2022/12/17 19:01:57;;;;;;;39.55;21.25;;;;;;;4.48;61.70;99339.19;5092620;28;20101;-48
2022/12/17 19:04:24;;;;;;;43.25;22.55;;;;;;;4.55;62.21;99360.25;5092482;28;20481;-47
2022/12/17 19:06:53;;;;;;;33.00;21.25;;;;;;;4.63;62.73;99351.69;5093518;28;20028;-47
2022/12/17 19:09:24;;;;;;;33.55;20.90;;;;;;;4.70;61.77;99355.38;5092246;28;20080;-47
2022/12/17 19:11:51;;;;;;;35.25;21.55;;;;;;;4.77;62.22;99359.84;5093586;28;20036;-47
2022/12/17 19:14:16;;;;;;;32.95;21.10;;;;;;;4.85;61.72;99361.72;5092149;28;20161;-48
2022/12/17 19:16:43;;;;;;;35.85;24.05;;;;;;;4.60;61.39;99365.81;5093598;28;20114;-47
2022/12/17 19:19:10;;;;;;;33.42;22.17;;;;;;;4.40;62.14;99359.91;5093298;28;20017;-47
2022/12/17 19:21:35;;;;;;;31.13;22.27;;;;;;;4.38;61.55;99364.41;5091978;28;20028;-48
2022/12/17 19:24:04;;;;;;;32.20;23.70;;;;;;;4.29;62.10;99362.69;5091705;28;20185;-47
2022/12/17 19:26:30;;;;;;;36.13;24.05;;;;;;;4.18;62.16;99376.66;5091853;28;20020;-48
2022/12/17 19:28:57;;;;;;;37.22;21.80;;;;;;;3.97;61.59;99379.47;5091773;28;20105;-47
2022/12/17 19:31:26;;;;;;;43.67;22.92;;;;;;;3.76;62.20;99387.44;5091783;28;20024;-47
2022/12/17 19:33:57;;;;;;;38.00;23.00;;;;;;;3.75;62.54;99383.22;5091819;28;20081;-47
2022/12/17 19:36:25;;;;;;;31.77;22.83;;;;;;;3.88;62.92;99381.13;5092980;28;20429;-47
2022/12/17 19:38:56;;;;;;;34.42;22.58;;;;;;;3.96;62.57;99389.06;5108816;28;20031;-47
2022/12/17 19:41:23;;;;;;;32.47;22.10;;;;;;;4.07;62.63;99395.03;5093017;28;20027;-48
2022/12/17 19:43:57;;;;;;;36.08;23.38;;;;;;;4.18;62.82;99387.06;5092918;28;20061;-48
2022/12/17 19:46:23;;;;;;;38.13;22.85;;;;;;;4.20;62.65;99387.72;5092907;28;20034;-48
2022/12/17 19:48:49;;;;;;;34.60;21.52;;;;;;;4.16;62.11;99397.59;5092763;28;20333;-47
2022/12/17 19:51:19;;;;;;;41.38;23.77;;;;;;;4.15;62.69;99405.53;5092732;28;20016;-47
2022/12/17 19:53:45;;;;;;;39.70;25.27;;;;;;;4.17;63.27;99420.03;5092728;28;20031;-47
2022/12/17 19:56:13;;;;;;;35.33;23.15;;;;;;;4.15;62.42;99434.94;5091354;28;20020;-47
2022/12/17 19:58:39;;;;;;;41.45;23.55;;;;;;;3.89;62.29;99442.50;5092507;28;20089;-47
2022/12/17 20:01:07;;;;;;;36.10;22.80;;;;;;;3.77;62.86;99438.41;5091226;28;20028;-47
2022/12/17 20:03:34;;;;;;;32.92;21.60;;;;;;;3.85;63.10;99428.16;5091242;28;20028;-47
2022/12/17 20:06:00;;;;;;;42.28;25.20;;;;;;;3.89;63.07;99418.31;5091175;28;20045;-47
2022/12/17 20:08:28;;;;;;;31.17;20.38;;;;;;;3.71;63.20;99428.56;5091050;28;20024;-47
2022/12/17 20:10:54;;;;;;;35.15;23.88;;;;;;;3.71;63.20;99434.56;5091075;28;20028;-47
2022/12/17 20:13:20;;;;;;;38.78;23.98;;;;;;;3.60;63.08;99430.34;5092445;28;20027;-47
2022/12/17 20:15:46;;;;;;;34.90;25.30;;;;;;;3.54;62.71;99427.47;5090974;28;20020;-48
2022/12/17 20:18:11;;;;;;;30.30;20.88;;;;;;;3.27;63.68;99428.16;5090983;28;20036;-47
2022/12/17 20:20:37;;;;;;;34.38;20.73;;;;;;;3.34;63.51;99422.28;5090869;28;20051;-48
2022/12/17 20:23:03;;;;;;;35.22;22.80;;;;;;;3.39;63.58;99430.47;5091990;28;20043;-47
2022/12/17 20:25:28;;;;;;;36.13;21.98;;;;;;;3.46;64.17;99429.94;5092435;28;20028;-47
2022/12/17 20:27:54;;;;;;;37.90;24.27;;;;;;;3.59;63.94;99446.06;5092036;28;20508;-47
2022/12/17 20:30:24;;;;;;;31.60;22.45;;;;;;;3.68;64.16;99455.63;5092136;28;20031;-47
2022/12/17 20:32:53;;;;;;;35.47;23.55;;;;;;;3.71;63.34;99463.13;5092091;28;20119;-47
2022/12/17 20:35:20;;;;;;;30.25;21.00;;;;;;;3.77;63.76;99464.38;5092050;28;20020;-48
2022/12/17 20:37:45;;;;;;;35.55;24.83;;;;;;;3.72;62.19;99461.34;5092063;28;20020;-48
2022/12/17 20:40:11;;;;;;;31.38;21.25;;;;;;;3.29;63.38;99460.78;5090955;28;20474;-47
2022/12/17 20:42:37;;;;;;;36.72;21.90;;;;;;;3.06;63.71;99455.00;5091997;28;20028;-47
2022/12/17 20:45:03;;;;;;;34.33;21.77;;;;;;;2.91;64.28;99448.56;5091926;28;20024;-48
2022/12/17 20:47:28;;;;;;;37.80;22.83;;;;;;;2.82;65.00;99465.72;5091831;28;20099;-47
2022/12/17 20:49:54;;;;;;;34.45;21.27;;;;;;;2.83;65.47;99485.50;5090510;28;20039;-47
2022/12/17 20:52:20;;;;;;;33.25;20.55;;;;;;;2.80;65.41;99496.94;5090570;28;20016;-47
2022/12/17 20:54:45;;;;;;;30.02;20.42;;;;;;;3.05;65.05;99500.03;5090651;28;20031;-47
2022/12/17 20:57:11;;;;;;;34.65;21.67;;;;;;;3.23;64.20;99496.81;5091803;28;20027;-48
2022/12/17 20:59:37;;;;;;;36.42;22.70;;;;;;;3.27;63.68;99486.03;5091776;28;20103;-48
2022/12/17 21:02:02;;;;;;;35.97;22.20;;;;;;;3.33;64.56;99477.72;5090406;28;20403;-47
2022/12/17 21:04:28;;;;;;;35.22;24.30;;;;;;;3.44;64.66;99487.16;5091748;28;20077;-47
2022/12/17 21:06:54;;;;;;;33.33;23.30;;;;;;;3.48;63.56;99488.53;5090467;28;20060;-47
2022/12/17 21:09:21;;;;;;;37.95;22.17;;;;;;;3.34;63.56;99489.75;5091712;28;20028;-48
2022/12/17 21:11:47;;;;;;;33.67;23.55;;;;;;;3.42;62.97;99498.63;5091982;28;20024;-48
2022/12/17 21:14:15;;;;;;;32.15;21.58;;;;;;;3.43;63.28;99503.69;5091651;28;20024;-47
2022/12/17 21:16:42;;;;;;;36.13;22.83;;;;;;;3.49;63.65;99507.53;5090345;28;20020;-47
2022/12/17 21:19:12;;;;;;;37.35;23.23;;;;;;;3.56;63.38;99514.63;5093375;28;20076;-47
2022/12/17 21:21:38;;;;;;;36.40;21.15;;;;;;;3.65;63.29;99522.56;5095649;28;20020;-47
2022/12/17 21:24:05;;;;;;;30.88;21.92;;;;;;;3.72;62.65;99527.09;5095478;28;20067;-47
2022/12/17 21:26:33;;;;;;;35.35;21.85;;;;;;;3.65;62.02;99522.56;5095804;28;20069;-48
2022/12/17 21:29:01;;;;;;;39.33;24.65;;;;;;;3.59;61.97;99532.53;5094158;28;20028;-47
2022/12/17 21:31:52;;;;;;;46.78;28.00;;;;;;;3.49;62.59;99533.47;5095467;28;20036;-47
2022/12/17 21:34:21;;;;;;;38.65;24.45;;;;;;;3.57;61.94;99518.84;5092475;28;20498;-47
2022/12/17 21:36:48;;;;;;;39.10;24.23;;;;;;;3.56;61.88;99525.03;5095351;28;20035;-47
2022/12/17 21:39:15;;;;;;;35.47;25.08;;;;;;;3.48;61.91;99508.47;5093985;28;20028;-47
2022/12/17 21:43:00;;;;;;;40.08;25.80;;;;;;;3.43;62.43;99508.88;5095288;28;20032;-47
2022/12/17 21:44:28;;;;;;;38.95;24.73;;;;;;;3.50;62.64;99511.75;5095064;28;20024;-47
2022/12/17 21:46:54;;;;;;;46.38;25.02;;;;;;;3.68;62.51;99512.75;5095059;28;20028;-47
2022/12/17 21:49:19;;;;;;;39.70;24.20;;;;;;;3.93;62.07;99506.16;5095076;28;20111;-47
2022/12/17 21:51:45;;;;;;;40.63;23.10;;;;;;;4.10;61.61;99511.63;5095128;28;20028;-47
2022/12/17 21:54:10;;;;;;;42.13;25.83;;;;;;;4.22;61.42;99505.31;5093679;28;20398;-47
2022/12/17 21:56:36;;;;;;;36.55;23.63;;;;;;;4.21;60.32;99508.88;5095011;28;20016;-47
2022/12/17 21:59:02;;;;;;;40.80;25.67;;;;;;;4.14;61.21;99513.81;5094955;28;20028;-47
2022/12/17 22:01:31;;;;;;;41.13;25.80;;;;;;;4.08;60.85;99519.56;5094912;28;20024;-47
2022/12/17 22:03:58;;;;;;;35.03;23.90;;;;;;;4.10;60.76;99529.81;5095071;28;20077;-48
2022/12/17 22:06:26;;;;;;;34.78;23.52;;;;;;;4.12;60.02;99526.09;5093532;28;20309;-47
2022/12/17 22:08:52;;;;;;;42.58;25.77;;;;;;;4.00;60.07;99519.41;5094966;28;20020;-48
2022/12/17 22:11:23;;;;;;;41.13;24.70;;;;;;;3.87;60.35;99511.91;5094700;28;20028;-47
2022/12/17 22:14:01;;;;;;;38.83;24.25;;;;;;;3.55;60.22;99509.56;5094728;28;20506;-48
2022/12/17 22:16:47;;;;;;;39.53;25.15;;;;;;;3.38;60.77;99511.88;5094634;28;20077;-47
2022/12/17 22:19:19;;;;;;;47.08;27.23;;;;;;;3.35;61.44;99522.50;5092936;28;20032;-47
2022/12/17 22:21:46;;;;;;;45.85;27.92;;;;;;;3.56;61.72;99529.38;5094426;28;20028;-47
2022/12/17 22:24:21;;;;;;;44.05;26.48;;;;;;;3.61;60.88;99535.00;5092923;28;20048;-47
2022/12/17 22:26:47;;;;;;;49.97;29.67;;;;;;;3.35;61.38;99538.06;5094523;28;20103;-48
2022/12/17 22:32:58;;;;;;;45.53;26.52;;;;;;;3.13;62.04;99540.88;5108918;28;20031;-47
2022/12/17 22:34:46;;;;;;;46.25;28.48;;;;;;;3.23;62.81;99552.09;5094625;28;20043;-47
2022/12/17 22:37:12;;;;;;;45.33;27.98;;;;;;;3.26;63.08;99554.44;5092901;28;20486;-48
2022/12/17 22:39:38;;;;;;;44.13;26.90;;;;;;;3.34;62.52;99552.00;5094443;28;20034;-48
2022/12/17 22:44:47;;;;;;;45.58;26.48;;;;;;;3.57;63.51;99562.16;5094130;28;20405;-47
2022/12/17 22:47:13;;;;;;;43.60;27.70;;;;;;;3.61;62.89;99558.34;5093975;28;20020;-48
2022/12/17 22:49:38;;;;;;;50.65;28.63;;;;;;;3.49;62.99;99560.22;5094209;28;20103;-47
2022/12/17 22:52:04;;;;;;;51.55;28.15;;;;;;;3.38;62.99;99560.31;5093889;28;20038;-47
2022/12/17 22:54:30;;;;;;;48.25;28.10;;;;;;;3.55;63.81;99553.69;5093937;28;20371;-47
2022/12/17 22:56:55;;;;;;;47.75;26.27;;;;;;;3.77;62.40;99537.88;5094043;28;20032;-48
2022/12/17 22:59:21;;;;;;;48.40;25.98;;;;;;;3.71;61.66;99541.00;5093797;28;20422;-47
2022/12/17 23:01:47;;;;;;;50.00;28.30;;;;;;;3.61;61.56;99535.00;5093961;28;20090;-47
2022/12/17 23:04:14;;;;;;;52.63;28.05;;;;;;;3.58;62.61;99543.03;5093699;28;20462;-48
2022/12/17 23:06:43;;;;;;;45.78;27.48;;;;;;;3.54;62.37;99537.31;5093636;28;20073;-47
2022/12/17 23:09:09;;;;;;;48.67;28.40;;;;;;;3.58;62.42;99545.63;5093459;28;20436;-48
2022/12/17 23:11:35;;;;;;;48.80;27.88;;;;;;;3.50;61.96;99548.06;5092206;28;20032;-48
2022/12/17 23:14:00;;;;;;;44.88;27.85;;;;;;;3.37;62.93;99554.31;5093715;28;20031;-47
2022/12/17 23:16:26;;;;;;;50.85;27.45;;;;;;;3.45;63.54;99542.47;5092120;28;20497;-47
2022/12/17 23:18:52;;;;;;;50.70;29.88;;;;;;;3.51;63.27;99549.72;5093408;28;20028;-48
2022/12/17 23:21:21;;;;;;;54.53;29.13;;;;;;;3.58;63.76;99554.25;5092276;28;20032;-47
2022/12/17 23:23:47;;;;;;;47.97;29.35;;;;;;;3.56;63.46;99555.31;5092992;28;20040;-47
2022/12/17 23:26:21;;;;;;;44.45;26.13;;;;;;;3.31;63.09;99560.03;5091970;28;20436;-48
2022/12/17 23:28:51;;;;;;;51.15;27.88;;;;;;;3.33;63.76;99572.88;5093184;28;20567;-48
2022/12/17 23:31:19;;;;;;;42.85;25.65;;;;;;;3.51;63.81;99573.09;5093351;28;20475;-48
2022/12/17 23:33:45;;;;;;;46.33;24.90;;;;;;;3.38;62.73;99576.75;5091757;28;20039;-48
2022/12/17 23:36:17;;;;;;;49.22;26.98;;;;;;;3.31;63.56;99574.81;5091757;28;20028;-48
2022/12/17 23:38:43;;;;;;;41.97;26.67;;;;;;;3.40;64.10;99572.25;5093025;28;20122;-47
2022/12/17 23:41:12;;;;;;;43.50;25.80;;;;;;;3.32;63.43;99574.69;5091385;28;20553;-47
2022/12/17 23:43:38;;;;;;;43.00;24.42;;;;;;;3.29;63.96;99574.09;5091663;28;20039;-47
2022/12/17 23:46:05;;;;;;;45.08;26.88;;;;;;;3.33;63.77;99575.50;5092808;28;20017;-47
2022/12/17 23:48:36;;;;;;;44.22;26.13;;;;;;;3.40;63.94;99569.66;5092777;28;20017;-47
2022/12/17 23:51:02;;;;;;;48.25;27.75;;;;;;;3.39;63.72;99565.41;5092817;28;20032;-48
2022/12/17 23:53:30;;;;;;;46.65;27.23;;;;;;;3.19;63.51;99558.50;5092803;28;20028;-47
2022/12/17 23:56:23;;;;;;;48.65;28.45;;;;;;;2.84;63.47;99545.94;5091379;28;20027;-48
2022/12/17 23:58:56;;;;;;;58.08;28.73;;;;;;;2.71;65.25;99541.78;5092090;28;20054;-47
